Time;durP1;ratioP1;P1;durP2;ratioP2;P2;SDS_P1;SDS_P2;PMS_P1;PMS_P2;Temp;Humidity;BMP_temperature;BMP_pressure;BME280_temperature;BME280_humidity;BME280_pressure;Samples;Min_cycle;Max_cycle;Signal;HPM_P1;HPM_P2
2024/03/29 00:00:40;;;;;;;5.27;1.20;;;;;;;8.37;100.00;98801.69;5024400;28;20478;-73
2024/03/29 00:03:06;;;;;;;6.40;1.27;;;;;;;8.17;100.00;98785.22;5026072;28;20562;-73
2024/03/29 00:05:35;;;;;;;5.97;1.37;;;;;;;7.58;100.00;98681.97;5024910;28;20927;-73
2024/03/29 00:08:01;;;;;;;7.60;1.40;;;;;;;7.98;100.00;98755.97;5027073;28;20497;-73
2024/03/29 00:10:26;;;;;;;6.90;1.23;;;;;;;7.91;100.00;98740.06;5021386;28;20448;-73
2024/03/29 00:12:52;;;;;;;5.50;1.20;;;;;;;7.77;100.00;98709.31;5026874;28;20513;-73
2024/03/29 00:15:17;;;;;;;5.23;1.03;;;;;;;8.23;100.00;98794.97;5022496;28;20278;-73
2024/03/29 00:17:43;;;;;;;6.10;1.13;;;;;;;8.34;100.00;98811.00;5025872;28;20859;-73
2024/03/29 00:20:08;;;;;;;10.53;1.30;;;;;;;7.69;100.00;98713.16;5025903;28;20189;-73
2024/03/29 00:22:34;;;;;;;6.47;1.83;;;;;;;8.41;100.00;98802.06;5024725;28;20207;-73
2024/03/29 00:25:00;;;;;;;7.33;1.20;;;;;;;8.40;100.00;98806.59;5024541;28;21017;-73
2024/03/29 00:27:26;;;;;;;6.20;1.20;;;;;;;8.14;100.00;98781.16;5022724;28;20185;-73
2024/03/29 00:29:53;;;;;;;12.10;1.83;;;;;;;7.78;100.00;98716.31;5023801;28;20267;-73
2024/03/29 00:32:21;;;;;;;5.47;1.30;;;;;;;7.49;100.00;98680.66;5023578;28;20466;-73
2024/03/29 00:34:50;;;;;;;7.07;1.10;;;;;;;8.13;100.00;98776.88;5025716;28;20561;-73
2024/03/29 00:37:16;;;;;;;7.07;1.60;;;;;;;8.41;100.00;98824.25;5022994;28;20446;-73
2024/03/29 00:39:41;;;;;;;6.80;1.07;;;;;;;8.14;100.00;98787.31;5021826;28;20814;-73
2024/03/29 00:42:12;;;;;;;5.63;1.20;;;;;;;8.43;100.00;98826.69;5024043;28;20208;-73
2024/03/29 00:44:38;;;;;;;7.33;1.00;;;;;;;7.65;100.00;98727.19;5029215;28;20180;-73
2024/03/29 00:47:05;;;;;;;7.20;1.30;;;;;;;8.10;100.00;98777.31;5032799;28;20438;-73
2024/03/29 00:49:30;;;;;;;6.87;1.27;;;;;;;8.19;100.00;98815.16;5025134;28;20454;-73
2024/03/29 00:51:56;;;;;;;7.90;1.20;;;;;;;7.21;100.00;98647.50;5021447;28;20466;-73
2024/03/29 00:54:23;;;;;;;9.00;1.47;;;;;;;7.62;100.00;98720.47;5022336;28;20776;-73
2024/03/29 00:56:48;;;;;;;5.37;1.27;;;;;;;8.42;100.00;98828.56;5023008;28;20204;-73
2024/03/29 00:59:14;;;;;;;7.97;1.20;;;;;;;7.76;100.00;98745.06;5019072;28;20493;-73
2024/03/29 01:01:39;;;;;;;7.80;1.33;;;;;;;8.24;100.00;98816.09;5023508;28;20215;-73
2024/03/29 01:04:05;;;;;;;22.17;2.00;;;;;;;7.70;100.00;98741.47;5024052;28;20192;-73
2024/03/29 01:06:30;;;;;;;5.07;1.10;;;;;;;8.35;100.00;98828.63;5023614;28;20192;-73
2024/03/29 01:08:56;;;;;;;6.60;0.87;;;;;;;7.96;100.00;98774.09;5027856;28;20600;-73
2024/03/29 01:11:22;;;;;;;7.03;1.10;;;;;;;7.65;100.00;98730.66;5006589;28;20196;-73
2024/03/29 01:13:47;;;;;;;6.07;1.10;;;;;;;7.57;100.00;98706.19;5020722;28;20555;-73
2024/03/29 01:16:12;;;;;;;9.37;1.20;;;;;;;8.05;100.00;98795.91;5022818;28;20184;-73
2024/03/29 01:18:38;;;;;;;6.60;1.60;;;;;;;8.19;100.00;98812.50;5022450;28;20682;-73
2024/03/29 01:21:04;;;;;;;6.57;1.40;;;;;;;7.87;100.00;98773.63;5023405;28;20195;-73
2024/03/29 01:23:29;;;;;;;6.50;1.27;;;;;;;8.13;100.00;98824.94;5024253;28;20594;-73
2024/03/29 01:25:55;;;;;;;5.20;0.90;;;;;;;8.11;100.00;98808.34;5023240;28;20219;-73
2024/03/29 01:28:20;;;;;;;5.40;0.90;;;;;;;7.78;100.00;98767.00;5015654;28;20935;-73
2024/03/29 01:30:58;;;;;;;9.87;1.30;;;;;;;8.32;100.00;98863.81;5025116;28;20647;-74
2024/03/29 01:33:24;;;;;;;5.53;0.93;;;;;;;8.25;100.00;98844.44;5028214;28;20215;-73
2024/03/29 01:35:49;;;;;;;6.17;1.10;;;;;;;7.66;100.00;98744.81;5029927;28;20451;-73
2024/03/29 01:38:15;;;;;;;6.13;1.30;;;;;;;7.59;100.00;98728.94;5026169;28;20200;-73
2024/03/29 01:40:40;;;;;;;8.33;1.30;;;;;;;7.60;100.00;98743.06;5025627;28;20176;-73
2024/03/29 01:43:07;;;;;;;4.63;0.97;;;;;;;8.14;100.00;98822.03;5028142;28;20615;-73
2024/03/29 01:45:35;;;;;;;6.10;1.20;;;;;;;8.09;100.00;98824.56;5009885;28;20205;-73
2024/03/29 01:48:01;;;;;;;7.00;1.20;;;;;;;8.26;100.00;98855.94;5025890;28;20442;-73
2024/03/29 01:50:27;;;;;;;6.53;1.00;;;;;;;7.68;100.00;98754.22;5025071;28;20439;-73
2024/03/29 01:52:52;;;;;;;7.67;1.30;;;;;;;8.08;100.00;98817.63;5025547;28;20213;-73
2024/03/29 01:55:18;;;;;;;7.10;1.30;;;;;;;8.33;100.00;98857.47;5028419;28;20234;-73
2024/03/29 01:57:44;;;;;;;6.13;1.17;;;;;;;7.94;100.00;98813.53;5029589;28;20208;-73
2024/03/29 02:00:10;;;;;;;8.90;1.30;;;;;;;8.15;100.00;98862.88;5026731;28;20199;-73
2024/03/29 02:02:36;;;;;;;8.47;1.23;;;;;;;8.27;100.00;98887.75;5027003;28;20760;-73
2024/03/29 02:05:02;;;;;;;7.93;1.07;;;;;;;8.34;100.00;98893.00;5027870;28;20439;-73
2024/03/29 02:07:28;;;;;;;7.40;1.73;;;;;;;8.25;100.00;98881.03;5026714;28;20447;-73
2024/03/29 02:09:54;;;;;;;6.10;1.50;;;;;;;7.57;100.00;98796.91;5023196;28;20184;-73
2024/03/29 02:12:19;;;;;;;4.63;0.90;;;;;;;8.19;100.00;98876.59;5023535;28;20873;-73
2024/03/29 02:14:45;;;;;;;6.20;1.07;;;;;;;7.95;100.00;98833.84;5024064;28;20637;-73
2024/03/29 02:17:10;;;;;;;8.40;1.20;;;;;;;8.26;100.00;98885.31;5027125;28;20195;-73
2024/03/29 02:19:36;;;;;;;5.70;1.10;;;;;;;8.04;100.00;98869.88;5028537;28;20188;-73
2024/03/29 02:22:06;;;;;;;10.80;1.77;;;;;;;8.14;100.00;98864.75;5025144;28;20209;-73
2024/03/29 02:24:32;;;;;;;5.60;1.00;;;;;;;8.06;100.00;98833.06;5027961;28;20189;-73
2024/03/29 02:26:57;;;;;;;6.00;1.20;;;;;;;7.40;100.00;98749.53;5025242;28;20430;-73
2024/03/29 02:29:24;;;;;;;5.93;1.20;;;;;;;7.22;100.00;98723.75;5027300;28;20958;-73
2024/03/29 02:31:49;;;;;;;10.13;1.40;;;;;;;8.23;100.00;98878.56;5023243;28;20227;-73
2024/03/29 02:34:15;;;;;;;8.40;1.43;;;;;;;8.16;100.00;98853.84;5023785;28;20581;-73
2024/03/29 02:36:42;;;;;;;6.27;1.30;;;;;;;7.79;100.00;98811.31;5028100;28;20231;-73
2024/03/29 02:39:08;;;;;;;9.80;1.00;;;;;;;7.97;100.00;98825.63;5024832;28;20928;-73
2024/03/29 02:41:33;;;;;;;8.03;1.20;;;;;;;7.90;100.00;98813.19;5025421;28;20493;-73
2024/03/29 02:43:59;;;;;;;6.20;1.07;;;;;;;8.10;100.00;98841.41;5027307;28;20192;-73
2024/03/29 02:46:24;;;;;;;8.23;1.00;;;;;;;7.97;100.00;98830.97;5022066;28;20204;-73
2024/03/29 02:48:50;;;;;;;11.00;1.07;;;;;;;8.12;100.00;98850.00;5023860;28;20208;-73
2024/03/29 02:51:15;;;;;;;7.17;1.13;;;;;;;7.53;100.00;98774.41;5025927;28;20227;-73
2024/03/29 02:53:40;;;;;;;8.03;0.90;;;;;;;7.46;100.00;98772.66;5024172;28;20216;-73
2024/03/29 02:56:09;;;;;;;7.43;0.87;;;;;;;8.10;100.00;98849.41;5027626;28;20267;-73
2024/03/29 02:58:35;;;;;;;6.83;1.10;;;;;;;8.10;100.00;98862.75;5024638;28;20906;-73
2024/03/29 03:01:08;;;;;;;5.67;1.10;;;;;;;7.84;100.00;98808.78;5024116;28;21061;-74
2024/03/29 03:03:35;;;;;;;8.63;1.30;;;;;;;8.05;100.00;98835.97;5022822;28;20908;-73
2024/03/29 03:06:00;;;;;;;6.33;1.00;;;;;;;7.89;100.00;98824.91;5032689;28;20451;-73
2024/03/29 03:11:10;;;;;;;8.00;1.10;;;;;;;7.59;100.00;98784.97;5024865;28;20242;-73
2024/03/29 03:13:35;;;;;;;6.20;1.30;;;;;;;8.07;100.00;98874.75;5028707;28;20470;-73
2024/03/29 03:16:01;;;;;;;8.57;1.20;;;;;;;8.02;100.00;98842.56;5028922;28;20960;-73
2024/03/29 03:18:26;;;;;;;7.77;1.30;;;;;;;7.39;100.00;98777.25;5025210;28;20184;-73
2024/03/29 03:20:57;;;;;;;7.43;1.20;;;;;;;7.80;100.00;98844.16;5023906;28;21188;-73
2024/03/29 03:23:23;;;;;;;7.93;1.10;;;;;;;7.69;100.00;98833.25;5025812;28;20242;-73
2024/03/29 03:25:59;;;;;;;5.30;1.20;;;;;;;7.26;100.00;98758.78;5028351;28;20436;-73
2024/03/29 03:28:25;;;;;;;6.47;1.23;;;;;;;8.02;100.00;98863.94;5027938;28;20195;-73
2024/03/29 03:30:51;;;;;;;7.00;1.13;;;;;;;7.99;100.00;98866.25;5028838;28;20442;-73
2024/03/29 03:33:17;;;;;;;5.40;1.33;;;;;;;7.54;100.00;98806.16;5007563;28;20236;-73
2024/03/29 03:35:43;;;;;;;9.33;1.23;;;;;;;7.80;100.00;98852.97;5028952;28;20439;-73
2024/03/29 03:38:08;;;;;;;6.00;1.23;;;;;;;7.69;100.00;98853.75;5028227;28;20220;-73
2024/03/29 03:40:35;;;;;;;8.20;1.47;;;;;;;7.57;100.00;98847.59;5029260;28;20435;-73
2024/03/29 03:43:02;;;;;;;6.47;1.20;;;;;;;7.17;100.00;98808.13;5027652;28;20204;-73
2024/03/29 03:45:27;;;;;;;6.63;1.00;;;;;;;7.27;100.00;98813.75;5028624;28;20442;-73
2024/03/29 03:47:53;;;;;;;9.30;1.53;;;;;;;7.16;100.00;98807.31;5029262;28;20442;-73
2024/03/29 03:50:18;;;;;;;4.93;0.90;;;;;;;7.20;100.00;98818.34;5028181;28;20580;-73
2024/03/29 03:52:43;;;;;;;5.53;1.00;;;;;;;7.74;100.00;98882.44;5009997;28;20213;-73
2024/03/29 03:55:09;;;;;;;5.40;1.00;;;;;;;7.67;100.00;98882.56;5027734;28;20242;-73
2024/03/29 03:57:34;;;;;;;6.87;1.27;;;;;;;7.04;100.00;98779.00;5029699;28;20192;-73
2024/03/29 04:00:00;;;;;;;6.80;1.20;;;;;;;7.84;100.00;98894.19;5021085;28;20250;-73
2024/03/29 04:02:25;;;;;;;7.53;1.40;;;;;;;7.45;100.00;98840.34;5004933;28;20209;-73
2024/03/29 04:04:52;;;;;;;8.40;1.27;;;;;;;7.27;100.00;98810.28;5027913;28;20234;-73
2024/03/29 04:07:17;;;;;;;8.17;1.43;;;;;;;7.54;100.00;98856.03;5001947;28;20356;-73
2024/03/29 04:09:42;;;;;;;6.37;1.20;;;;;;;7.36;100.00;98816.91;5026859;28;20947;-73
2024/03/29 04:12:08;;;;;;;6.23;1.27;;;;;;;7.21;100.00;98802.13;5023902;28;20208;-73
2024/03/29 04:14:33;;;;;;;7.37;1.40;;;;;;;7.67;100.00;98894.03;5009156;28;20208;-73
2024/03/29 04:16:59;;;;;;;11.30;1.23;;;;;;;7.76;100.00;98913.19;5027541;28;20271;-73
2024/03/29 04:19:24;;;;;;;7.50;1.37;;;;;;;7.27;100.00;98818.28;5027179;28;20192;-73
2024/03/29 04:21:49;;;;;;;5.00;1.20;;;;;;;7.58;100.00;98915.91;5022295;28;20209;-73
2024/03/29 04:24:15;;;;;;;5.57;1.33;;;;;;;7.63;100.00;98916.84;5024598;28;20250;-73
2024/03/29 04:26:40;;;;;;;9.00;1.20;;;;;;;7.38;100.00;98877.00;5024925;28;20192;-73
2024/03/29 04:29:06;;;;;;;10.47;1.53;;;;;;;6.68;100.00;98796.66;5023140;28;20192;-73
2024/03/29 04:31:31;;;;;;;5.10;1.10;;;;;;;7.38;100.00;98884.19;5026130;28;20219;-73
2024/03/29 04:33:56;;;;;;;5.00;1.10;;;;;;;7.24;100.00;98856.88;5021951;28;20216;-73
2024/03/29 04:36:22;;;;;;;6.33;1.10;;;;;;;7.47;100.00;98912.97;5019928;28;20193;-73
2024/03/29 04:38:48;;;;;;;7.60;1.47;;;;;;;7.56;100.00;98910.00;5003884;28;21223;-73
2024/03/29 04:41:13;;;;;;;8.50;1.53;;;;;;;6.95;100.00;98824.63;5024736;28;20224;-73
2024/03/29 04:43:40;;;;;;;5.93;1.53;;;;;;;7.38;100.00;98895.66;5026916;28;20184;-73
2024/03/29 04:46:10;;;;;;;6.50;1.20;;;;;;;7.35;100.00;98904.13;5024581;28;20283;-73
2024/03/29 04:48:37;;;;;;;4.43;0.80;;;;;;;7.48;100.00;98895.91;5021739;28;20454;-73
2024/03/29 04:51:02;;;;;;;8.10;1.40;;;;;;;7.60;100.00;98914.63;5021066;28;20446;-73
2024/03/29 04:53:28;;;;;;;8.73;1.40;;;;;;;7.44;100.00;98908.09;5022558;28;20971;-73
2024/03/29 04:55:58;;;;;;;6.83;1.33;;;;;;;7.33;100.00;98902.72;5025106;28;20450;-73
2024/03/29 04:58:26;;;;;;;7.83;1.60;;;;;;;6.84;100.00;98819.25;5025130;28;20188;-73
2024/03/29 05:00:52;;;;;;;7.77;1.23;;;;;;;7.43;100.00;98922.47;5023120;28;20438;-73
2024/03/29 05:03:19;;;;;;;6.57;1.37;;;;;;;7.44;100.00;98923.28;5024787;28;20463;-73
2024/03/29 05:05:45;;;;;;;7.90;1.70;;;;;;;7.59;100.00;98917.56;5021517;28;20442;-73
2024/03/29 05:08:11;;;;;;;7.80;1.20;;;;;;;7.59;100.00;98917.56;5003707;28;21562;-73
2024/03/29 05:10:37;;;;;;;7.13;1.27;;;;;;;7.14;100.00;98833.38;5019954;28;20485;-73
2024/03/29 05:13:03;;;;;;;8.00;1.47;;;;;;;7.64;100.00;98907.03;5021093;28;20475;-73
2024/03/29 05:15:28;;;;;;;5.40;1.07;;;;;;;7.87;100.00;98957.00;5027384;28;21005;-73
2024/03/29 05:17:54;;;;;;;8.03;1.50;;;;;;;7.75;100.00;98924.09;5004150;28;20224;-73
2024/03/29 05:20:20;;;;;;;5.80;1.47;;;;;;;7.95;100.00;98974.53;5023654;28;20263;-73
2024/03/29 05:22:45;;;;;;;6.23;1.40;;;;;;;7.57;100.00;98903.63;5021502;28;20223;-73
2024/03/29 05:25:10;;;;;;;5.00;1.00;;;;;;;7.90;100.00;98969.88;5006420;28;20226;-73
2024/03/29 05:27:36;;;;;;;7.20;1.20;;;;;;;7.82;100.00;98947.00;5028472;28;20215;-73
2024/03/29 05:30:03;;;;;;;12.00;1.53;;;;;;;7.73;100.00;98923.53;5030782;28;20192;-73
2024/03/29 05:32:29;;;;;;;7.50;1.40;;;;;;;7.64;100.00;98891.00;5022335;28;20208;-73
2024/03/29 05:34:54;;;;;;;9.90;1.97;;;;;;;8.05;100.00;98972.13;5023767;28;20486;-73
2024/03/29 05:37:20;;;;;;;8.33;1.60;;;;;;;8.12;100.00;98979.00;5026275;28;20431;-73
2024/03/29 05:39:47;;;;;;;5.80;1.33;;;;;;;8.02;100.00;98961.91;5027379;28;20183;-73
2024/03/29 05:42:12;;;;;;;7.90;1.30;;;;;;;8.02;100.00;98976.06;5027242;28;20653;-73
2024/03/29 05:44:38;;;;;;;7.27;0.90;;;;;;;7.92;100.00;98955.25;5024842;28;20506;-73
2024/03/29 05:47:06;;;;;;;5.30;1.20;;;;;;;8.14;100.00;98995.59;5022476;28;20203;-73
2024/03/29 05:49:33;;;;;;;5.07;1.00;;;;;;;8.25;100.00;98999.38;5022017;28;20200;-73
2024/03/29 05:51:58;;;;;;;6.30;1.83;;;;;;;8.07;100.00;98994.06;5026266;28;20451;-73
2024/03/29 05:54:24;;;;;;;7.80;1.60;;;;;;;8.29;100.00;99010.41;5027261;28;20497;-73
2024/03/29 05:56:50;;;;;;;6.00;1.00;;;;;;;7.91;100.00;98953.63;5004560;28;20188;-73
2024/03/29 05:59:15;;;;;;;7.40;1.20;;;;;;;7.62;100.00;98901.91;5024537;28;20847;-73
2024/03/29 06:01:40;;;;;;;5.00;0.97;;;;;;;7.99;100.00;98973.84;5022515;28;20240;-72
2024/03/29 06:04:13;;;;;;;7.00;1.30;;;;;;;8.31;100.00;99011.81;5024415;28;20211;-73
2024/03/29 06:06:39;;;;;;;5.47;1.10;;;;;;;7.84;100.00;98944.91;5026434;28;20180;-73
2024/03/29 06:09:04;;;;;;;6.30;1.30;;;;;;;7.43;100.00;98874.47;5026097;28;20446;-73
2024/03/29 06:11:29;;;;;;;8.93;1.30;;;;;;;7.59;100.00;98905.03;5026846;28;20451;-75
2024/03/29 06:19:12;;;;;;;7.90;1.20;;;;;;;8.31;100.00;99009.13;5031649;28;20493;-73
2024/03/29 06:21:38;;;;;;;5.37;1.10;;;;;;;8.06;100.00;98982.56;5031902;28;20450;-73
2024/03/29 06:24:12;;;;;;;4.90;1.03;;;;;;;8.41;100.00;99007.78;5025208;28;20638;-73
2024/03/29 06:26:38;;;;;;;7.40;1.30;;;;;;;8.18;100.00;99011.97;5023679;28;20597;-73
2024/03/29 06:29:03;;;;;;;4.67;0.80;;;;;;;8.26;100.00;99011.66;5026950;28;20853;-73
2024/03/29 06:31:29;;;;;;;7.27;1.23;;;;;;;8.01;100.00;98968.28;5026997;28;20201;-73
2024/03/29 06:33:55;;;;;;;8.37;1.20;;;;;;;7.61;100.00;98924.28;5026345;28;20596;-73
2024/03/29 06:36:20;;;;;;;5.40;1.07;;;;;;;7.78;100.00;98939.66;5030162;28;20279;-73
2024/03/29 06:38:46;;;;;;;6.73;0.90;;;;;;;7.76;100.00;98942.56;5031117;28;20546;-73
2024/03/29 06:41:12;;;;;;;4.67;0.90;;;;;;;7.69;100.00;98949.81;5029698;28;20557;-73
2024/03/29 06:43:37;;;;;;;7.47;1.53;;;;;;;8.07;100.00;99007.41;5029056;28;20630;-73
2024/03/29 06:46:03;;;;;;;5.13;1.00;;;;;;;7.77;100.00;98949.50;5030949;28;20455;-73
2024/03/29 06:48:31;;;;;;;7.33;1.20;;;;;;;8.07;100.00;98978.03;5030570;28;20269;-73
2024/03/29 06:50:57;;;;;;;5.50;1.00;;;;;;;8.01;100.00;98970.94;5027570;28;20195;-73
2024/03/29 06:53:23;;;;;;;4.67;0.90;;;;;;;8.18;100.00;98993.28;5029392;28;20564;-73
2024/03/29 06:55:49;;;;;;;5.97;0.80;;;;;;;8.54;100.00;99053.81;5026846;28;20446;-73
2024/03/29 06:58:15;;;;;;;6.37;1.10;;;;;;;8.54;100.00;99031.63;5028892;28;20184;-73
2024/03/29 07:00:40;;;;;;;6.07;1.30;;;;;;;8.53;100.00;99060.22;5028916;28;21279;-73
2024/03/29 07:03:07;;;;;;;4.57;1.00;;;;;;;8.69;100.00;99064.06;5029322;28;20196;-73
2024/03/29 07:05:32;;;;;;;5.20;1.07;;;;;;;8.17;100.00;98993.53;5028753;28;20219;-73
2024/03/29 07:07:59;;;;;;;6.17;1.03;;;;;;;8.65;100.00;99056.72;5026598;28;20443;-73
2024/03/29 07:10:25;;;;;;;6.33;1.10;;;;;;;8.63;100.00;99056.16;5028941;28;20192;-73
2024/03/29 07:12:50;;;;;;;4.73;0.80;;;;;;;8.76;100.00;99090.69;5029924;28;20454;-73
2024/03/29 07:15:15;;;;;;;7.40;0.80;;;;;;;8.55;100.00;99046.63;5028065;28;20215;-73
2024/03/29 07:17:43;;;;;;;4.63;0.90;;;;;;;8.40;100.00;99012.31;5029978;28;20202;-73
2024/03/29 07:20:09;;;;;;;5.90;1.10;;;;;;;8.57;100.00;99053.38;5010277;28;20219;-73
2024/03/29 07:22:34;;;;;;;5.70;1.00;;;;;;;8.22;100.00;98981.13;5028181;28;21035;-73
2024/03/29 07:25:00;;;;;;;5.17;0.80;;;;;;;8.38;100.00;99009.03;5028125;28;20459;-73
2024/03/29 07:27:27;;;;;;;5.47;1.00;;;;;;;8.71;100.00;99067.34;5028757;28;20184;-73
2024/03/29 07:29:53;;;;;;;4.30;0.90;;;;;;;8.75;100.00;99084.53;5022977;28;20196;-73
2024/03/29 07:32:18;;;;;;;6.13;1.07;;;;;;;8.47;100.00;99046.94;5024613;28;20482;-73
2024/03/29 07:34:44;;;;;;;7.00;0.90;;;;;;;8.66;100.00;99077.91;5027254;28;20251;-73
2024/03/29 07:37:14;;;;;;;4.30;0.90;;;;;;;8.46;100.00;99058.69;5027739;28;20270;-72
2024/03/29 07:39:41;;;;;;;5.83;0.80;;;;;;;8.65;100.00;99096.81;5027857;28;20262;-73
2024/03/29 07:42:06;;;;;;;5.20;0.87;;;;;;;8.45;100.00;99057.06;5022556;28;20485;-72
2024/03/29 07:44:32;;;;;;;5.50;0.80;;;;;;;8.01;100.00;98981.63;5028089;28;20907;-72
2024/03/29 07:46:57;;;;;;;4.40;0.87;;;;;;;8.87;100.00;99071.19;5029512;28;20239;-73
2024/03/29 07:49:22;;;;;;;4.43;0.90;;;;;;;8.72;100.00;99044.09;5034329;28;20199;-73
2024/03/29 07:51:48;;;;;;;5.00;0.80;;;;;;;8.75;100.00;99079.19;5017952;28;20208;-73
2024/03/29 07:54:13;;;;;;;7.90;1.10;;;;;;;8.81;100.00;99080.13;5027135;28;20503;-73
2024/03/29 07:56:39;;;;;;;5.80;1.20;;;;;;;8.13;100.00;98977.97;5028233;28;20272;-73
2024/03/29 07:59:06;;;;;;;6.13;0.83;;;;;;;8.55;100.00;99033.25;5027268;28;20184;-73
2024/03/29 08:01:32;;;;;;;5.30;0.80;;;;;;;8.85;100.00;99081.28;5021058;28;20216;-73
2024/03/29 08:03:57;;;;;;;4.77;0.90;;;;;;;8.36;100.00;98993.22;5036684;28;20829;-74
2024/03/29 08:06:23;;;;;;;4.80;0.80;;;;;;;8.68;100.00;99019.69;5034769;28;20642;-73
2024/03/29 08:08:50;;;;;;;3.83;0.77;;;;;;;8.77;100.00;99020.16;5019681;28;20205;-73
2024/03/29 08:11:16;;;;;;;5.50;0.83;;;;;;;9.07;100.00;99084.22;5035900;28;20204;-73
2024/03/29 08:13:41;;;;;;;7.77;1.10;;;;;;;8.52;100.00;99017.69;5020008;28;20459;-72
2024/03/29 08:16:07;;;;;;;7.73;0.73;;;;;;;8.71;100.00;99074.56;5035508;28;20649;-73
2024/03/29 08:18:35;;;;;;;4.30;0.80;;;;;;;9.01;100.00;99053.06;5021805;28;20191;-73
2024/03/29 08:21:01;;;;;;;4.00;0.70;;;;;;;9.16;100.00;99120.28;5044103;28;20185;-73
2024/03/29 08:23:27;;;;;;;4.93;0.80;;;;;;;8.45;100.00;99028.47;5039605;28;20431;-73
2024/03/29 08:25:55;;;;;;;4.23;0.70;;;;;;;8.82;100.00;99063.88;5018203;28;20527;-73
2024/03/29 08:28:24;;;;;;;4.57;0.80;;;;;;;8.59;100.00;99094.03;5039425;28;20180;-74
2024/03/29 08:31:05;;;;;;;3.57;0.63;;;;;;;8.94;100.00;99164.66;5016809;28;20438;-73
2024/03/29 08:33:31;;;;;;;5.63;1.00;;;;;;;8.86;100.00;99157.00;5035347;28;20467;-73
2024/03/29 08:35:57;;;;;;;4.70;1.00;;;;;;;8.35;100.00;99066.38;5029831;28;20478;-73
2024/03/29 08:38:23;;;;;;;5.90;0.80;;;;;;;8.81;100.00;99121.03;5016710;28;20462;-73
2024/03/29 08:40:50;;;;;;;4.23;0.80;;;;;;;8.83;100.00;99086.06;5012677;28;20212;-73
2024/03/29 08:43:17;;;;;;;4.67;0.90;;;;;;;8.96;100.00;99136.66;5014390;28;20433;-73
2024/03/29 08:45:44;;;;;;;7.80;1.20;;;;;;;8.42;100.00;99079.72;5033722;28;20435;-73
2024/03/29 08:48:10;;;;;;;5.70;1.27;;;;;;;8.79;100.00;99149.88;5032851;28;20453;-72
2024/03/29 08:50:36;;;;;;;4.10;0.93;;;;;;;8.61;100.00;99101.81;5017290;28;20485;-73
2024/03/29 08:53:03;;;;;;;4.23;1.03;;;;;;;8.35;100.00;99031.66;5011912;28;20458;-73
2024/03/29 08:55:30;;;;;;;3.57;0.70;;;;;;;8.36;100.00;99068.03;5013929;28;20450;-73
2024/03/29 08:57:58;;;;;;;4.67;0.90;;;;;;;8.58;100.00;99099.59;5016626;28;20462;-73
2024/03/29 09:00:23;;;;;;;3.90;0.70;;;;;;;8.81;100.00;99139.75;5024931;28;20439;-73
2024/03/29 09:02:49;;;;;;;4.70;1.30;;;;;;;8.43;100.00;99054.59;5020516;28;20581;-73
2024/03/29 09:05:14;;;;;;;4.30;1.00;;;;;;;8.63;100.00;99088.25;5018699;28;20187;-74
2024/03/29 09:07:40;;;;;;;3.93;0.80;;;;;;;8.51;100.00;99043.59;5019732;28;20199;-73
2024/03/29 09:10:07;;;;;;;5.80;0.93;;;;;;;8.40;100.00;99056.94;5025412;28;20275;-74
2024/03/29 09:12:32;;;;;;;5.50;1.00;;;;;;;9.07;100.00;99142.25;5025641;28;20521;-74
2024/03/29 09:14:58;;;;;;;5.03;1.00;;;;;;;8.94;100.00;99146.78;5026899;28;20471;-73
2024/03/29 09:17:24;;;;;;;6.33;1.10;;;;;;;8.45;100.00;99041.03;5025564;28;20192;-73
2024/03/29 09:19:53;;;;;;;3.87;0.73;;;;;;;8.99;100.00;99127.34;5025133;28;20186;-74
2024/03/29 09:22:18;;;;;;;4.67;0.80;;;;;;;8.73;100.00;99091.16;5025022;28;20852;-74
2024/03/29 09:24:44;;;;;;;4.67;0.97;;;;;;;9.14;100.00;99114.38;5026209;28;20531;-73
2024/03/29 09:27:09;;;;;;;5.20;0.80;;;;;;;8.38;100.00;99049.09;5027486;28;20207;-73
2024/03/29 09:29:35;;;;;;;4.57;0.80;;;;;;;8.98;100.00;99147.94;5026496;28;20191;-73
2024/03/29 09:32:03;;;;;;;6.63;1.03;;;;;;;9.00;100.00;99121.78;5021583;28;20243;-74
2024/03/29 09:34:30;;;;;;;4.57;0.90;;;;;;;9.23;100.00;99146.94;5024241;28;20212;-73
2024/03/29 09:36:56;;;;;;;4.87;1.03;;;;;;;8.68;100.00;99117.75;5022599;28;20827;-73
2024/03/29 09:39:21;;;;;;;5.53;1.80;;;;;;;9.08;100.00;99158.06;5022468;28;20447;-73
2024/03/29 09:41:47;;;;;;;5.03;1.70;;;;;;;9.23;100.00;99179.03;5022002;28;20289;-73
2024/03/29 09:44:13;;;;;;;6.63;1.30;;;;;;;8.58;100.00;99096.94;5022878;28;20238;-73
2024/03/29 09:46:43;;;;;;;4.33;0.80;;;;;;;8.60;100.00;99052.09;5020401;28;20191;-73
2024/03/29 09:49:12;;;;;;;4.17;0.83;;;;;;;8.84;100.00;99074.31;5024001;28;20526;-73
2024/03/29 09:51:39;;;;;;;4.57;0.90;;;;;;;8.72;100.00;99050.25;5029883;28;20458;-73
2024/03/29 09:54:08;;;;;;;4.13;0.80;;;;;;;8.67;100.00;99105.44;5030445;28;20478;-73
2024/03/29 09:56:34;;;;;;;3.60;0.70;;;;;;;9.17;100.00;99175.44;5031035;28;20431;-73
2024/03/29 09:59:01;;;;;;;4.10;0.80;;;;;;;8.76;100.00;99053.28;5030664;28;20434;-73
2024/03/29 10:01:27;;;;;;;4.73;0.87;;;;;;;8.95;100.00;99113.63;5030301;28;20447;-73
2024/03/29 10:03:53;;;;;;;4.30;0.80;;;;;;;9.45;100.00;99174.75;5031580;28;20517;-73
2024/03/29 10:06:20;;;;;;;5.50;0.80;;;;;;;8.59;100.00;99061.13;5032399;28;20431;-73
2024/03/29 10:08:46;;;;;;;4.33;0.90;;;;;;;8.92;100.00;99076.66;5030665;28;20423;-73
2024/03/29 10:11:16;;;;;;;4.30;0.80;;;;;;;9.64;100.00;99137.97;5041493;28;20441;-73
2024/03/29 10:13:42;;;;;;;3.67;0.60;;;;;;;9.28;100.00;99097.00;5016449;28;20466;-73
2024/03/29 10:16:10;;;;;;;7.57;0.70;;;;;;;9.50;100.00;99195.47;5031818;28;21265;-73
2024/03/29 10:18:36;;;;;;;4.50;0.77;;;;;;;9.45;100.00;99156.00;5029898;28;20225;-73
2024/03/29 10:21:03;;;;;;;4.30;0.80;;;;;;;9.68;100.00;99197.22;5008761;28;20435;-73
2024/03/29 10:23:29;;;;;;;3.67;0.60;;;;;;;8.89;100.00;99105.72;5031074;28;20633;-73
2024/03/29 10:25:54;;;;;;;4.13;0.67;;;;;;;9.11;100.00;99084.56;5031675;28;20419;-73
2024/03/29 10:28:20;;;;;;;4.20;0.77;;;;;;;9.63;100.00;99187.22;5030901;28;20434;-73
2024/03/29 10:30:45;;;;;;;3.90;0.60;;;;;;;9.63;100.00;99197.09;5030993;28;20239;-73
2024/03/29 10:33:13;;;;;;;5.53;1.03;;;;;;;9.59;100.00;99147.75;5031128;28;20807;-73
2024/03/29 10:35:41;;;;;;;5.00;0.80;;;;;;;9.54;100.00;99145.78;5029517;28;20542;-73
2024/03/29 10:38:09;;;;;;;4.73;0.83;;;;;;;9.48;100.00;99149.38;5029074;28;20784;-73
2024/03/29 10:40:34;;;;;;;3.80;0.70;;;;;;;9.60;100.00;99184.97;5029705;28;20435;-73
2024/03/29 10:43:03;;;;;;;4.20;0.80;;;;;;;9.34;100.00;99135.41;5030347;28;20454;-73
2024/03/29 10:45:30;;;;;;;3.90;0.70;;;;;;;9.85;100.00;99222.25;5027772;28;20195;-73
2024/03/29 10:47:56;;;;;;;5.10;0.70;;;;;;;9.52;100.00;99201.41;5031004;28;20427;-73
2024/03/29 10:50:23;;;;;;;4.13;0.90;;;;;;;9.72;100.00;99239.38;5029743;28;20439;-73
2024/03/29 10:52:48;;;;;;;5.67;0.80;;;;;;;9.94;100.00;99212.81;5031594;28;21089;-73
2024/03/29 10:55:14;;;;;;;5.87;1.10;;;;;;;9.38;100.00;99144.63;5030504;28;20463;-73
2024/03/29 10:57:41;;;;;;;5.37;0.97;;;;;;;10.00;100.00;99218.28;5030765;28;20172;-73
2024/03/29 11:00:18;;;;;;;5.17;1.00;;;;;;;9.97;100.00;99214.19;5031013;28;20172;-73
2024/03/29 11:03:12;;;;;;;5.50;0.77;;;;;;;10.29;100.00;99205.78;5026755;28;20486;-73
2024/03/29 11:05:43;;;;;;;4.80;0.93;;;;;;;10.28;100.00;99220.25;5011695;28;20423;-73
2024/03/29 11:08:09;;;;;;;4.83;0.80;;;;;;;10.60;100.00;99236.72;5030765;28;20493;-73
2024/03/29 11:10:46;;;;;;;5.63;1.00;;;;;;;10.68;100.00;99233.66;5007168;28;20439;-73
2024/03/29 11:13:40;;;;;;;4.90;0.80;;;;;;;10.10;100.00;99181.81;5030120;28;20427;-73
2024/03/29 11:16:06;;;;;;;6.03;0.90;;;;;;;10.29;100.00;99236.09;5002711;28;21560;-73
2024/03/29 11:18:32;;;;;;;5.00;0.80;;;;;;;10.46;100.00;99246.09;5029162;28;20443;-73
2024/03/29 11:20:59;;;;;;;6.03;1.03;;;;;;;10.48;100.00;99188.50;5028784;28;20677;-73
2024/03/29 11:23:27;;;;;;;6.00;0.90;;;;;;;10.38;100.00;99239.22;5029837;28;20472;-73
2024/03/29 11:25:55;;;;;;;4.90;1.00;;;;;;;10.42;100.00;99178.75;5031398;28;20435;-73
2024/03/29 11:28:31;;;;;;;8.13;1.33;;;;;;;10.95;100.00;99289.44;5029910;28;20955;-73
2024/03/29 11:31:05;;;;;;;4.40;1.00;;;;;;;10.57;100.00;99245.25;5029576;28;20422;-73
2024/03/29 11:33:33;;;;;;;5.40;1.03;;;;;;;10.70;100.00;99300.44;5029435;28;20832;-73
2024/03/29 11:36:08;;;;;;;5.40;1.13;;;;;;;11.12;100.00;99300.22;5027565;28;20442;-73